Time;durP1;ratioP1;P1;durP2;ratioP2;P2;SDS_P1;SDS_P2;PMS_P1;PMS_P2;Temp;Humidity;BMP_temperature;BMP_pressure;BME280_temperature;BME280_humidity;BME280_pressure;Samples;Min_cycle;Max_cycle;Signal;HPM_P1;HPM_P2
2023/07/09 00:01:33;;;;;;;;;;;;;;;26.51;44.77;101307.03;4180973;28;20383;-58
2023/07/09 00:03:34;;;;;;;;;;;;;;;26.50;44.87;101305.34;4180952;28;20384;-59
2023/07/09 00:05:36;;;;;;;;;;;;;;;26.50;45.08;101307.19;4180002;28;19956;-59
2023/07/09 00:07:37;;;;;;;;;;;;;;;26.47;44.64;101306.47;4180535;28;19928;-58
2023/07/09 00:09:39;;;;;;;;;;;;;;;26.47;45.01;101311.03;4181019;28;19929;-58
2023/07/09 00:11:41;;;;;;;;;;;;;;;26.45;44.97;101313.88;4180906;28;19969;-59
2023/07/09 00:13:42;;;;;;;;;;;;;;;26.46;45.19;101310.16;4180719;28;20406;-58
2023/07/09 00:15:44;;;;;;;;;;;;;;;26.46;45.02;101309.34;4179836;28;19928;-58
2023/07/09 00:17:45;;;;;;;;;;;;;;;26.45;45.17;101311.19;4180779;28;20024;-57
2023/07/09 00:19:47;;;;;;;;;;;;;;;26.45;44.95;101305.81;4180999;28;19928;-58
2023/07/09 00:21:52;;;;;;;;;;;;;;;26.44;45.11;101301.41;4180378;28;19924;-58
2023/07/09 00:23:55;;;;;;;;;;;;;;;26.43;45.06;101313.19;4180620;28;20323;-59
2023/07/09 00:25:56;;;;;;;;;;;;;;;26.42;44.85;101314.16;4179944;28;19964;-58
2023/07/09 00:27:58;;;;;;;;;;;;;;;26.41;44.97;101314.31;4180933;28;20376;-58
2023/07/09 00:29:59;;;;;;;;;;;;;;;26.41;45.30;101319.72;4180799;28;20379;-59
2023/07/09 00:32:01;;;;;;;;;;;;;;;26.39;44.67;101311.78;4180548;28;19947;-58
2023/07/09 00:34:03;;;;;;;;;;;;;;;26.39;45.13;101316.28;4179792;28;19925;-59
2023/07/09 00:36:11;;;;;;;;;;;;;;;26.39;45.30;101319.00;4179347;28;19921;-58
2023/07/09 00:38:13;;;;;;;;;;;;;;;26.38;45.09;101318.16;4180681;28;19928;-58
2023/07/09 00:40:16;;;;;;;;;;;;;;;26.37;45.06;101327.25;4180540;28;20024;-57
2023/07/09 00:42:19;;;;;;;;;;;;;;;26.36;45.32;101330.94;4180750;28;19927;-58
2023/07/09 00:44:25;;;;;;;;;;;;;;;26.35;45.24;101337.31;4179948;28;19946;-58
2023/07/09 00:46:27;;;;;;;;;;;;;;;26.34;45.17;101334.75;4180233;28;19931;-58
2023/07/09 00:48:31;;;;;;;;;;;;;;;26.34;44.98;101332.91;4180655;28;19921;-59
2023/07/09 00:50:35;;;;;;;;;;;;;;;26.33;45.19;101339.28;4180148;28;19979;-58
2023/07/09 00:52:57;;;;;;;;;;;;;;;26.32;45.30;101337.63;4180540;28;19921;-58
2023/07/09 00:55:02;;;;;;;;;;;;;;;26.31;45.40;101344.84;4179524;28;19920;-58
2023/07/09 00:57:12;;;;;;;;;;;;;;;26.31;45.34;101342.13;4180578;28;19921;-58
2023/07/09 00:59:15;;;;;;;;;;;;;;;26.31;45.25;101344.00;4180334;28;19928;-59
2023/07/09 01:01:18;;;;;;;;;;;;;;;26.31;45.33;101344.00;4180361;28;19920;-58
2023/07/09 01:03:23;;;;;;;;;;;;;;;26.30;45.53;101339.59;4180375;28;19921;-57
2023/07/09 01:05:25;;;;;;;;;;;;;;;26.29;45.35;101341.41;4179091;28;19928;-58
2023/07/09 01:07:28;;;;;;;;;;;;;;;26.28;45.38;101350.53;4180347;28;19927;-58
2023/07/09 01:09:29;;;;;;;;;;;;;;;26.27;45.26;101346.13;4180338;28;20302;-59
2023/07/09 01:11:31;;;;;;;;;;;;;;;26.27;45.60;101343.44;4180037;28;19944;-58
2023/07/09 01:13:39;;;;;;;;;;;;;;;26.26;45.55;101351.63;4180337;28;19931;-58
2023/07/09 01:15:41;;;;;;;;;;;;;;;26.26;45.36;101351.63;4179481;28;19921;-58
2023/07/09 01:17:46;;;;;;;;;;;;;;;26.25;45.43;101358.06;4180345;28;19947;-58
2023/07/09 01:19:50;;;;;;;;;;;;;;;26.24;45.78;101364.44;4180183;28;20003;-58
2023/07/09 01:21:53;;;;;;;;;;;;;;;26.24;45.67;101353.66;4180419;28;20383;-58
2023/07/09 01:23:57;;;;;;;;;;;;;;;26.23;45.45;101362.72;4180205;28;19921;-58
2023/07/09 01:25:58;;;;;;;;;;;;;;;26.22;45.75;101359.19;4179148;28;19948;-58
2023/07/09 01:28:05;;;;;;;;;;;;;;;26.22;45.41;101358.31;4180214;28;19920;-58
2023/07/09 01:30:08;;;;;;;;;;;;;;;26.22;45.91;101358.31;4180207;28;19921;-59
2023/07/09 01:32:10;;;;;;;;;;;;;;;26.20;45.84;101368.38;4180348;28;19959;-58
2023/07/09 01:34:11;;;;;;;;;;;;;;;26.07;45.72;101339.88;4179597;28;19920;-58
2023/07/09 01:36:23;;;;;;;;;;;;;;;26.18;45.85;101368.53;4179613;28;19952;-58
2023/07/09 01:38:24;;;;;;;;;;;;;;;26.20;45.81;101371.06;4180109;28;19921;-58
2023/07/09 01:40:27;;;;;;;;;;;;;;;26.18;45.85;101375.78;4180192;28;19921;-58
2023/07/09 01:42:37;;;;;;;;;;;;;;;26.18;45.96;101373.94;4180235;28;19927;-58
2023/07/09 01:44:40;;;;;;;;;;;;;;;26.15;46.13;101377.75;4179358;28;19925;-58
2023/07/09 01:46:45;;;;;;;;;;;;;;;26.15;46.11;101377.75;4181999;28;19944;-58
2023/07/09 01:48:50;;;;;;;;;;;;;;;26.14;46.36;101378.75;4214279;28;20476;-58
2023/07/09 01:50:52;;;;;;;;;;;;;;;26.15;46.29;101376.91;4183189;28;20326;-58
2023/07/09 01:52:54;;;;;;;;;;;;;;;26.14;46.42;101377.91;4183065;28;19925;-58
2023/07/09 01:54:56;;;;;;;;;;;;;;;26.13;46.23;101384.28;4182069;28;19956;-58
2023/07/09 01:57:11;;;;;;;;;;;;;;;26.12;46.55;101379.88;4182753;28;19921;-58
2023/07/09 01:59:13;;;;;;;;;;;;;;;26.11;46.59;101383.56;4183025;28;19946;-58
2023/07/09 02:01:16;;;;;;;;;;;;;;;26.11;46.18;101383.56;4183004;28;20352;-58
2023/07/09 02:03:18;;;;;;;;;;;;;;;26.09;46.65;101381.03;4182730;28;20383;-58
2023/07/09 02:05:20;;;;;;;;;;;;;;;26.09;46.39;101383.72;4181958;28;19920;-58
2023/07/09 02:07:22;;;;;;;;;;;;;;;26.09;46.56;101383.72;4182860;28;20041;-57
2023/07/09 02:09:24;;;;;;;;;;;;;;;26.08;46.50;101384.69;4182928;28;20367;-58
2023/07/09 02:11:25;;;;;;;;;;;;;;;26.08;46.37;101383.88;4182477;28;20311;-58
2023/07/09 02:13:27;;;;;;;;;;;;;;;26.06;46.54;101389.34;4182577;28;19920;-58
2023/07/09 02:15:30;;;;;;;;;;;;;;;26.06;46.43;101375.88;4181851;28;19982;-58
2023/07/09 02:17:32;;;;;;;;;;;;;;;26.06;46.31;101380.41;4182472;28;20039;-58
2023/07/09 02:19:33;;;;;;;;;;;;;;;26.05;46.67;101384.94;4197852;28;20034;-58
2023/07/09 02:21:35;;;;;;;;;;;;;;;26.04;46.75;101382.38;4182756;28;19959;-58
2023/07/09 02:23:36;;;;;;;;;;;;;;;26.03;46.29;101376.16;4182785;28;20298;-58
2023/07/09 02:25:38;;;;;;;;;;;;;;;26.03;46.69;101381.56;4181650;28;20451;-58
2023/07/09 02:27:39;;;;;;;;;;;;;;;26.03;46.84;101380.69;4182400;28;19935;-58
2023/07/09 02:29:41;;;;;;;;;;;;;;;26.02;46.60;101377.16;4182464;28;19966;-58
2023/07/09 02:31:43;;;;;;;;;;;;;;;26.02;46.69;101370.91;4182534;28;19924;-58
2023/07/09 02:33:44;;;;;;;;;;;;;;;26.01;46.27;101377.28;4182199;28;19932;-58
2023/07/09 02:35:46;;;;;;;;;;;;;;;26.01;46.45;101378.13;4181344;28;20008;-58
2023/07/09 02:37:49;;;;;;;;;;;;;;;25.99;46.33;101378.28;4182425;28;19927;-58
2023/07/09 02:39:50;;;;;;;;;;;;;;;25.99;46.53;101378.28;4182373;28;19927;-58
2023/07/09 02:41:52;;;;;;;;;;;;;;;25.99;46.54;101383.66;4181164;28;19921;-58
2023/07/09 02:43:53;;;;;;;;;;;;;;;25.99;46.69;101383.66;4182257;28;19942;-58
2023/07/09 02:45:55;;;;;;;;;;;;;;;25.98;46.47;101390.06;4181374;28;19927;-58
2023/07/09 02:47:56;;;;;;;;;;;;;;;25.98;46.43;101386.50;4181983;28;19921;-58
2023/07/09 02:49:58;;;;;;;;;;;;;;;25.98;46.39;101378.44;4182148;28;19924;-58
2023/07/09 02:52:00;;;;;;;;;;;;;;;25.97;46.24;101385.66;4182200;28;19956;-58
2023/07/09 02:54:02;;;;;;;;;;;;;;;25.96;46.61;101386.63;4181941;28;19928;-58
2023/07/09 02:56:04;;;;;;;;;;;;;;;25.89;46.87;101376.56;4181287;28;19978;-59
2023/07/09 02:58:06;;;;;;;;;;;;;;;25.95;46.60;101395.69;4181096;28;19924;-58
2023/07/09 03:00:07;;;;;;;;;;;;;;;25.95;46.39;101394.88;4182064;28;20007;-59
2023/07/09 03:02:09;;;;;;;;;;;;;;;25.94;46.28;101388.63;4181633;28;20360;-59
2023/07/09 03:04:11;;;;;;;;;;;;;;;25.94;46.74;101395.84;4182070;28;19928;-59
2023/07/09 03:06:13;;;;;;;;;;;;;;;25.94;46.40;101391.34;4180982;28;19964;-59
2023/07/09 03:08:15;;;;;;;;;;;;;;;25.93;46.61;101397.72;4182309;28;20000;-59
2023/07/09 03:10:17;;;;;;;;;;;;;;;25.92;46.82;101387.91;4181951;28;19924;-59
2023/07/09 03:12:18;;;;;;;;;;;;;;;25.92;46.86;101392.44;4180650;28;20015;-59
2023/07/09 03:14:20;;;;;;;;;;;;;;;25.91;46.95;101388.91;4181850;28;19963;-59
2023/07/09 03:16:21;;;;;;;;;;;;;;;25.92;47.17;101403.22;4180803;28;19920;-58
2023/07/09 03:18:23;;;;;;;;;;;;;;;25.91;47.00;101407.75;4182179;28;20026;-59
2023/07/09 03:20:25;;;;;;;;;;;;;;;25.90;47.26;101413.31;4181840;28;19994;-59
2023/07/09 03:22:26;;;;;;;;;;;;;;;25.89;47.08;101411.59;4181771;28;19974;-59
2023/07/09 03:24:28;;;;;;;;;;;;;;;25.89;47.22;101406.22;4181479;28;19928;-58
2023/07/09 03:26:29;;;;;;;;;;;;;;;25.89;47.11;101412.44;4180578;28;19927;-58
2023/07/09 03:28:31;;;;;;;;;;;;;;;25.88;47.08;101416.13;4181759;28;19920;-58
2023/07/09 03:30:33;;;;;;;;;;;;;;;25.88;47.47;101423.34;4181241;28;19944;-58
2023/07/09 03:32:34;;;;;;;;;;;;;;;25.87;47.32;101425.22;4181594;28;20384;-58
2023/07/09 03:34:36;;;;;;;;;;;;;;;25.87;47.33;101418.94;4181421;28;20359;-59
2023/07/09 03:36:38;;;;;;;;;;;;;;;25.87;47.50;101416.25;4180467;28;19925;-58
2023/07/09 03:38:39;;;;;;;;;;;;;;;25.85;47.35;101411.00;4181486;28;19928;-59
2023/07/09 03:40:41;;;;;;;;;;;;;;;25.86;47.32;101414.56;4181521;28;19921;-59
2023/07/09 03:42:42;;;;;;;;;;;;;;;25.84;47.46;101409.31;4181360;28;19930;-58
2023/07/09 03:44:44;;;;;;;;;;;;;;;25.84;47.40;101422.78;4195743;28;19963;-59
2023/07/09 03:46:45;;;;;;;;;;;;;;;25.83;47.64;101421.94;4180906;28;20327;-59
2023/07/09 03:48:52;;;;;;;;;;;;;;;25.84;47.19;101425.47;4181437;28;19921;-59
2023/07/09 03:50:53;;;;;;;;;;;;;;;25.83;46.97;101421.06;4181291;28;19945;-59
2023/07/09 03:52:55;;;;;;;;;;;;;;;25.83;47.58;101418.38;4181258;28;19925;-58
2023/07/09 03:54:56;;;;;;;;;;;;;;;25.82;47.48;101408.59;4180530;28;19939;-58
2023/07/09 03:56:58;;;;;;;;;;;;;;;25.81;47.22;101409.59;4181133;28;20308;-58
2023/07/09 03:59:00;;;;;;;;;;;;;;;25.80;47.33;101414.13;4180793;28;19983;-58
2023/07/09 04:01:01;;;;;;;;;;;;;;;25.79;47.44;101411.56;4181110;28;19927;-58
2023/07/09 04:03:03;;;;;;;;;;;;;;;25.81;47.81;101412.28;4181061;28;19920;-58
2023/07/09 04:05:05;;;;;;;;;;;;;;;25.79;47.44;101415.09;4180270;28;20391;-59
2023/07/09 04:07:06;;;;;;;;;;;;;;;25.79;47.41;101412.41;4179617;28;19959;-59
2023/07/09 04:09:08;;;;;;;;;;;;;;;25.78;47.17;101420.63;4180769;28;19921;-58
2023/07/09 04:11:09;;;;;;;;;;;;;;;25.78;47.34;101409.88;4180776;28;19921;-58
2023/07/09 04:13:11;;;;;;;;;;;;;;;25.78;47.21;101417.94;4180827;28;19924;-59
2023/07/09 04:15:13;;;;;;;;;;;;;;;25.78;47.09;101412.56;4179632;28;19920;-59
2023/07/09 04:17:14;;;;;;;;;;;;;;;25.78;47.39;101417.94;4180602;28;20318;-58
2023/07/09 04:19:16;;;;;;;;;;;;;;;25.77;47.88;101421.63;4180711;28;19975;-58
2023/07/09 04:21:17;;;;;;;;;;;;;;;25.76;47.61;101420.78;4180997;28;19924;-59
2023/07/09 04:23:19;;;;;;;;;;;;;;;25.76;47.50;101420.78;4180881;28;20353;-58
2023/07/09 04:25:21;;;;;;;;;;;;;;;25.76;47.21;101425.31;4179999;28;19920;-58
2023/07/09 04:27:27;;;;;;;;;;;;;;;25.74;47.60;101421.91;4180753;28;20380;-59
2023/07/09 04:29:29;;;;;;;;;;;;;;;25.74;47.38;101427.31;4180533;28;19927;-59
2023/07/09 04:31:30;;;;;;;;;;;;;;;25.73;47.47;101418.34;4180756;28;19920;-59
2023/07/09 04:33:34;;;;;;;;;;;;;;;25.74;47.60;101425.44;4180602;28;19920;-58
2023/07/09 04:35:36;;;;;;;;;;;;;;;25.73;47.34;101423.75;4179778;28;20055;-59
2023/07/09 04:37:38;;;;;;;;;;;;;;;25.74;47.26;101427.31;4180395;28;19971;-59
2023/07/09 04:39:40;;;;;;;;;;;;;;;25.72;47.53;101416.63;4180503;28;19924;-59
2023/07/09 04:41:41;;;;;;;;;;;;;;;25.73;47.17;101417.50;4180647;28;19950;-59
2023/07/09 04:43:43;;;;;;;;;;;;;;;25.73;47.64;101409.44;4180120;28;19932;-59
2023/07/09 04:45:45;;;;;;;;;;;;;;;25.72;47.94;101413.94;4179713;28;20028;-58
2023/07/09 04:47:46;;;;;;;;;;;;;;;25.71;47.70;101414.94;4180670;28;20326;-58
2023/07/09 04:49:48;;;;;;;;;;;;;;;25.71;47.70;101411.41;4180466;28;19921;-59
2023/07/09 04:51:49;;;;;;;;;;;;;;;25.70;47.75;101412.38;4180673;28;19960;-58
2023/07/09 04:53:51;;;;;;;;;;;;;;;25.69;47.55;101411.53;4180597;28;19959;-59
2023/07/09 04:55:53;;;;;;;;;;;;;;;25.71;47.70;101403.31;4179464;28;20344;-59
2023/07/09 04:57:54;;;;;;;;;;;;;;;25.70;47.49;101405.16;4180296;28;19966;-58
2023/07/09 04:59:56;;;;;;;;;;;;;;;25.70;47.75;101404.28;4180617;28;20406;-59
2023/07/09 05:01:57;;;;;;;;;;;;;;;25.68;47.65;101405.28;4180540;28;19927;-59
2023/07/09 05:03:59;;;;;;;;;;;;;;;25.69;47.49;101403.47;4180561;28;19951;-59
2023/07/09 05:06:00;;;;;;;;;;;;;;;25.69;47.53;101398.06;4179432;28;19920;-59
2023/07/09 05:08:02;;;;;;;;;;;;;;;25.68;47.73;101390.97;4180289;28;20372;-59
2023/07/09 05:10:05;;;;;;;;;;;;;;;25.59;47.77;101378.31;4180091;28;19921;-59
2023/07/09 05:12:07;;;;;;;;;;;;;;;25.67;47.96;101400.88;4179898;28;19931;-58
2023/07/09 05:14:08;;;;;;;;;;;;;;;25.68;47.94;101404.44;4180215;28;19952;-59
2023/07/09 05:16:10;;;;;;;;;;;;;;;25.67;47.54;101405.44;4179358;28;20002;-59
2023/07/09 05:18:12;;;;;;;;;;;;;;;25.67;48.08;101405.44;4180414;28;19982;-60
2023/07/09 05:20:14;;;;;;;;;;;;;;;25.66;47.60;101404.59;4180487;28;20273;-59
2023/07/09 05:22:16;;;;;;;;;;;;;;;25.67;47.76;101391.97;4183397;28;19961;-60
2023/07/09 05:24:17;;;;;;;;;;;;;;;25.66;47.79;101393.81;4183455;28;19993;-59
2023/07/09 05:26:19;;;;;;;;;;;;;;;25.66;47.87;101390.25;4182375;28;19925;-60
2023/07/09 05:28:20;;;;;;;;;;;;;;;25.67;48.18;101400.03;4183585;28;19951;-60
2023/07/09 05:30:22;;;;;;;;;;;;;;;25.66;47.58;101403.72;4183526;28;20019;-59
2023/07/09 05:32:24;;;;;;;;;;;;;;;25.65;47.85;101408.28;4183340;28;19920;-60
2023/07/09 05:34:25;;;;;;;;;;;;;;;25.64;47.82;101420.03;4183298;28;19927;-59
2023/07/09 05:36:28;;;;;;;;;;;;;;;25.64;48.04;101420.03;4182418;28;20400;-59
2023/07/09 05:38:30;;;;;;;;;;;;;;;25.64;47.94;101416.50;4183193;28;19932;-60
2023/07/09 05:40:31;;;;;;;;;;;;;;;25.64;48.25;101428.13;4182939;28;20000;-61
2023/07/09 05:42:33;;;;;;;;;;;;;;;25.63;48.31;101418.31;4183353;28;19921;-59
2023/07/09 05:44:34;;;;;;;;;;;;;;;25.64;48.16;101424.56;4183218;28;19928;-59
2023/07/09 05:46:36;;;;;;;;;;;;;;;25.62;48.32;101413.91;4182277;28;19920;-60
2023/07/09 05:48:38;;;;;;;;;;;;;;;25.63;48.50;101417.47;4183179;28;19947;-59
2023/07/09 05:50:40;;;;;;;;;;;;;;;25.62;48.30;101416.59;4183123;28;19928;-60
2023/07/09 05:52:41;;;;;;;;;;;;;;;25.63;48.37;101415.63;4183170;28;19928;-60
2023/07/09 05:54:43;;;;;;;;;;;;;;;25.63;48.25;101414.78;4183216;28;19948;-59
2023/07/09 05:56:45;;;;;;;;;;;;;;;25.62;48.26;101408.53;4181897;28;19925;-60
2023/07/09 05:58:47;;;;;;;;;;;;;;;25.63;48.35;101404.00;4183094;28;19967;-59
2023/07/09 06:00:56;;;;;;;;;;;;;;;25.62;48.06;101410.38;4183054;28;19920;-60
2023/07/09 06:02:57;;;;;;;;;;;;;;;25.62;47.83;101410.38;4181718;28;19929;-59
2023/07/09 06:04:59;;;;;;;;;;;;;;;25.63;48.02;101409.41;4182896;28;19921;-60
2023/07/09 06:07:01;;;;;;;;;;;;;;;25.62;48.19;101408.53;4181770;28;19921;-59
2023/07/09 06:09:02;;;;;;;;;;;;;;;25.62;47.95;101413.06;4182851;28;19920;-58
2023/07/09 06:11:04;;;;;;;;;;;;;;;25.63;48.20;101409.41;4182331;28;19925;-59
2023/07/09 06:13:06;;;;;;;;;;;;;;;25.63;48.44;101409.41;4182969;28;20431;-59
2023/07/09 06:15:08;;;;;;;;;;;;;;;25.62;48.06;101416.59;4181199;28;20028;-59
2023/07/09 06:17:10;;;;;;;;;;;;;;;25.63;48.06;101409.41;4182069;28;19921;-59
2023/07/09 06:19:11;;;;;;;;;;;;;;;25.61;48.20;101400.59;4181662;28;20353;-59
2023/07/09 06:21:13;;;;;;;;;;;;;;;25.60;48.00;101394.38;4182882;28;19921;-58
2023/07/09 06:23:14;;;;;;;;;;;;;;;25.60;47.89;101406.97;4182810;28;19927;-58
2023/07/09 06:25:16;;;;;;;;;;;;;;;25.60;48.15;101420.44;4182103;28;19920;-58
2023/07/09 06:27:18;;;;;;;;;;;;;;;25.60;47.83;101432.06;4181797;28;20003;-58
2023/07/09 06:29:19;;;;;;;;;;;;;;;25.60;47.77;101428.50;4182663;28;19927;-58
2023/07/09 06:31:21;;;;;;;;;;;;;;;25.60;47.80;101431.22;4182348;28;19920;-58
2023/07/09 06:33:23;;;;;;;;;;;;;;;25.59;47.96;101433.06;4182529;28;20007;-59
2023/07/09 06:35:25;;;;;;;;;;;;;;;25.59;48.08;101448.34;4197121;28;19921;-59
2023/07/09 06:37:26;;;;;;;;;;;;;;;25.59;47.85;101451.91;4182338;28;19956;-59
2023/07/09 06:39:28;;;;;;;;;;;;;;;25.59;47.91;101462.69;4182329;28;20379;-59
2023/07/09 06:41:29;;;;;;;;;;;;;;;25.58;47.81;101463.69;4182155;28;19920;-59
2023/07/09 06:43:32;;;;;;;;;;;;;;;25.58;47.67;101454.72;4182311;28;19952;-59
2023/07/09 06:45:33;;;;;;;;;;;;;;;25.58;47.69;101452.03;4181548;28;19928;-58
2023/07/09 06:47:35;;;;;;;;;;;;;;;25.58;47.52;101450.22;4182258;28;19942;-59
2023/07/09 06:49:36;;;;;;;;;;;;;;;25.59;47.52;101460.00;4182037;28;19970;-59
2023/07/09 06:51:38;;;;;;;;;;;;;;;25.59;47.52;101465.38;4182117;28;19946;-58
2023/07/09 06:53:39;;;;;;;;;;;;;;;25.59;47.48;101462.69;4181897;28;20288;-58
2023/07/09 06:55:41;;;;;;;;;;;;;;;25.60;47.52;101463.53;4181336;28;19920;-58
2023/07/09 06:57:43;;;;;;;;;;;;;;;25.60;47.68;101468.91;4182094;28;19928;-58
2023/07/09 06:59:44;;;;;;;;;;;;;;;25.59;47.37;101478.84;4182162;28;19935;-59
2023/07/09 07:01:46;;;;;;;;;;;;;;;25.59;47.61;101476.16;4182082;28;20384;-58
2023/07/09 07:03:47;;;;;;;;;;;;;;;25.59;47.68;101477.97;4182032;28;19958;-58
2023/07/09 07:05:50;;;;;;;;;;;;;;;25.59;47.77;101468.06;4181059;28;19924;-59
2023/07/09 07:07:53;;;;;;;;;;;;;;;25.58;47.58;101455.59;4181352;28;19928;-58
2023/07/09 07:09:54;;;;;;;;;;;;;;;25.59;47.61;101464.50;4181901;28;19975;-58
2023/07/09 07:11:56;;;;;;;;;;;;;;;25.60;47.79;101467.09;4181596;28;19921;-58
2023/07/09 07:13:58;;;;;;;;;;;;;;;25.61;47.52;101466.09;4181914;28;20355;-58
2023/07/09 07:16:00;;;;;;;;;;;;;;;25.62;47.35;101461.56;4181042;28;19927;-58
2023/07/09 07:18:03;;;;;;;;;;;;;;;25.62;47.59;101446.25;4181725;28;20012;-58
2023/07/09 07:20:06;;;;;;;;;;;;;;;25.63;47.68;101444.41;4181832;28;20338;-58
2023/07/09 07:22:07;;;;;;;;;;;;;;;25.62;47.44;101443.53;4181395;28;19999;-59
2023/07/09 07:24:09;;;;;;;;;;;;;;;25.64;47.31;101449.66;4181728;28;19920;-58
2023/07/09 07:26:10;;;;;;;;;;;;;;;25.64;47.34;101457.75;4180636;28;19921;-58
2023/07/09 07:28:11;;;;;;;;;;;;;;;25.66;47.68;101462.97;4181602;28;20315;-59
2023/07/09 07:30:13;;;;;;;;;;;;;;;25.66;47.22;101461.16;4181587;28;19921;-59
2023/07/09 07:32:15;;;;;;;;;;;;;;;25.67;47.36;101459.31;4181442;28;19928;-58
2023/07/09 07:34:16;;;;;;;;;;;;;;;25.66;47.38;101461.16;4181551;28;19921;-58
2023/07/09 07:36:18;;;;;;;;;;;;;;;25.55;47.63;101458.53;4180646;28;19929;-60
2023/07/09 07:38:22;;;;;;;;;;;;;;;25.66;47.31;101490.78;4181216;28;19933;-59
2023/07/09 07:40:24;;;;;;;;;;;;;;;25.66;47.28;101474.63;4181604;28;19927;-59
2023/07/09 07:42:25;;;;;;;;;;;;;;;25.66;47.44;101484.53;4181435;28;19921;-59
2023/07/09 07:44:27;;;;;;;;;;;;;;;25.64;47.68;101492.75;4180998;28;19924;-59
2023/07/09 07:46:32;;;;;;;;;;;;;;;25.64;47.57;101481.16;4180498;28;20394;-59
2023/07/09 07:48:34;;;;;;;;;;;;;;;25.63;47.35;101495.59;4181299;28;19921;-58
2023/07/09 07:50:36;;;;;;;;;;;;;;;25.63;47.67;101504.53;4181351;28;19975;-59
2023/07/09 07:52:37;;;;;;;;;;;;;;;25.62;47.46;101512.75;4181090;28;19925;-59
2023/07/09 07:54:39;;;;;;;;;;;;;;;25.61;47.43;101528.03;4181305;28;19924;-59
2023/07/09 07:56:40;;;;;;;;;;;;;;;25.61;47.53;101548.75;4180115;28;19960;-59
2023/07/09 07:58:42;;;;;;;;;;;;;;;25.59;47.60;101573.13;4181069;28;19959;-59
2023/07/09 08:00:43;;;;;;;;;;;;;;;25.59;47.53;101573.13;4181145;28;20010;-59
2023/07/09 08:02:45;;;;;;;;;;;;;;;25.57;47.68;101567.00;4181177;28;19928;-59
2023/07/09 08:04:46;;;;;;;;;;;;;;;25.56;47.49;101569.84;4181159;28;19951;-59
2023/07/09 08:06:48;;;;;;;;;;;;;;;25.55;47.95;101570.81;4179704;28;20488;-58
2023/07/09 08:08:50;;;;;;;;;;;;;;;25.54;47.87;101561.03;4180967;28;19921;-58
2023/07/09 08:10:51;;;;;;;;;;;;;;;25.54;47.39;101556.50;4180629;28;19921;-57
2023/07/09 08:12:56;;;;;;;;;;;;;;;25.53;47.64;101549.41;4180913;28;19921;-58
2023/07/09 08:14:58;;;;;;;;;;;;;;;25.53;47.94;101535.97;4180744;28;19935;-58
2023/07/09 08:16:59;;;;;;;;;;;;;;;25.52;47.62;101523.47;4179786;28;19920;-58
2023/07/09 08:19:01;;;;;;;;;;;;;;;25.52;47.58;101512.69;4180543;28;19924;-59
2023/07/09 08:21:03;;;;;;;;;;;;;;;25.51;47.77;101514.50;4180318;28;19947;-58
2023/07/09 08:23:06;;;;;;;;;;;;;;;25.50;47.60;101522.75;4180801;28;19952;-59
2023/07/09 08:25:08;;;;;;;;;;;;;;;25.50;47.64;101525.44;4180704;28;19920;-59
2023/07/09 08:27:09;;;;;;;;;;;;;;;25.50;47.72;101538.91;4179885;28;19920;-58
2023/07/09 08:29:11;;;;;;;;;;;;;;;25.50;47.76;101549.66;4180754;28;19928;-59
2023/07/09 08:31:13;;;;;;;;;;;;;;;25.50;47.66;101546.97;4180601;28;19921;-59
2023/07/09 08:33:14;;;;;;;;;;;;;;;25.50;47.66;101537.03;4180686;28;19928;-59
2023/07/09 08:35:16;;;;;;;;;;;;;;;25.48;47.70;101522.00;4180488;28;20400;-59
2023/07/09 08:37:20;;;;;;;;;;;;;;;25.48;47.78;101513.94;4179601;28;19921;-59
2023/07/09 08:39:22;;;;;;;;;;;;;;;25.48;47.56;101522.00;4180631;28;20013;-59
2023/07/09 08:41:43;;;;;;;;;;;;;;;25.48;48.09;101524.69;4180530;28;19921;-59
2023/07/09 08:43:45;;;;;;;;;;;;;;;25.48;47.95;101522.88;4180264;28;20402;-59
2023/07/09 08:45:55;;;;;;;;;;;;;;;25.48;47.85;101530.97;4180229;28;20384;-60
2023/07/09 08:48:03;;;;;;;;;;;;;;;25.48;47.62;101549.81;4180467;28;19920;-58
2023/07/09 08:50:13;;;;;;;;;;;;;;;25.50;47.52;101546.97;4180198;28;19920;-59
2023/07/09 08:52:24;;;;;;;;;;;;;;;25.49;47.89;101550.66;4180291;28;19921;-59
2023/07/09 08:54:27;;;;;;;;;;;;;;;25.49;47.83;101553.34;4180471;28;20403;-58
2023/07/09 08:56:32;;;;;;;;;;;;;;;25.47;47.64;101553.50;4181320;28;20011;-59
2023/07/09 08:58:34;;;;;;;;;;;;;;;25.48;47.61;101557.03;4183798;28;19920;-60
2023/07/09 09:00:41;;;;;;;;;;;;;;;25.48;47.85;101560.59;4184084;28;19967;-60
2023/07/09 09:02:51;;;;;;;;;;;;;;;25.48;47.84;101565.97;4184071;28;20003;-60
2023/07/09 09:04:52;;;;;;;;;;;;;;;25.49;47.48;101574.88;4183753;28;19928;-59
2023/07/09 09:07:06;;;;;;;;;;;;;;;25.48;47.78;101574.06;4182656;28;20000;-60
2023/07/09 09:09:30;;;;;;;;;;;;;;;25.47;47.82;101585.81;4182501;28;20066;-60
2023/07/09 09:11:41;;;;;;;;;;;;;;;25.47;48.05;101590.31;4183543;28;20371;-59
2023/07/09 09:13:43;;;;;;;;;;;;;;;25.46;47.92;101585.94;4183912;28;19959;-59
2023/07/09 09:15:47;;;;;;;;;;;;;;;25.45;47.61;101585.06;4183245;28;19927;-60
2023/07/09 09:17:55;;;;;;;;;;;;;;;25.45;47.68;101570.75;4182999;28;19921;-59
2023/07/09 09:20:16;;;;;;;;;;;;;;;25.45;47.86;101562.69;4183596;28;19948;-60
2023/07/09 09:22:23;;;;;;;;;;;;;;;25.44;47.74;101552.91;4183767;28;19948;-60
2023/07/09 09:24:31;;;;;;;;;;;;;;;25.43;47.94;101548.50;4183746;28;19960;-60
2023/07/09 09:26:34;;;;;;;;;;;;;;;25.42;48.18;101547.66;4182480;28;19953;-59
2023/07/09 09:28:36;;;;;;;;;;;;;;;25.40;48.12;101552.31;4183580;28;19920;-60
2023/07/09 09:30:38;;;;;;;;;;;;;;;25.39;48.01;101555.97;4183367;28;19920;-61
2023/07/09 09:32:44;;;;;;;;;;;;;;;25.40;48.99;101546.06;4183204;28;19925;-60
2023/07/09 09:34:45;;;;;;;;;;;;;;;25.39;48.31;101547.06;4183252;28;19924;-60
2023/07/09 09:36:47;;;;;;;;;;;;;;;25.39;48.63;101541.66;4182562;28;19921;-60
2023/07/09 09:38:50;;;;;;;;;;;;;;;25.39;48.37;101541.66;4183124;28;19924;-60
2023/07/09 09:40:59;;;;;;;;;;;;;;;25.39;48.09;101542.50;4183371;28;19921;-60
2023/07/09 09:43:01;;;;;;;;;;;;;;;25.40;47.77;101556.84;4183066;28;19921;-60
2023/07/09 09:45:03;;;;;;;;;;;;;;;25.41;47.74;101569.31;4183040;28;19925;-60
2023/07/09 09:47:04;;;;;;;;;;;;;;;25.40;48.06;101578.41;4181918;28;19921;-60
2023/07/09 09:49:09;;;;;;;;;;;;;;;25.40;47.82;101592.69;4183174;28;19955;-60
2023/07/09 09:51:12;;;;;;;;;;;;;;;25.41;47.74;101601.63;4182905;28;19921;-60
2023/07/09 09:53:18;;;;;;;;;;;;;;;25.40;47.91;101602.63;4183095;28;19924;-60
2023/07/09 09:55:28;;;;;;;;;;;;;;;25.39;47.92;101606.31;4183275;28;19964;-60
2023/07/09 09:57:30;;;;;;;;;;;;;;;25.40;47.81;101600.78;4181942;28;19929;-60
2023/07/09 09:59:32;;;;;;;;;;;;;;;25.40;47.76;101597.25;4183038;28;20467;-60
2023/07/09 10:01:35;;;;;;;;;;;;;;;25.39;47.83;101584.75;4182800;28;19921;-60
2023/07/09 10:03:37;;;;;;;;;;;;;;;25.39;48.08;101587.44;4182898;28;20414;-60
2023/07/09 10:05:44;;;;;;;;;;;;;;;25.39;47.73;101590.97;4182853;28;19983;-60
2023/07/09 10:07:52;;;;;;;;;;;;;;;25.40;47.87;101583.78;4181410;28;20402;-60
2023/07/09 10:09:54;;;;;;;;;;;;;;;25.39;47.70;101585.59;4182854;28;19921;-60
2023/07/09 10:12:05;;;;;;;;;;;;;;;25.40;48.09;101586.47;4182604;28;19929;-60
2023/07/09 10:14:31;;;;;;;;;;;;;;;25.39;47.71;101588.28;4182682;28;19921;-61
2023/07/09 10:16:39;;;;;;;;;;;;;;;25.40;47.76;101602.63;4181285;28;19921;-60
2023/07/09 10:18:50;;;;;;;;;;;;;;;25.39;47.90;101603.59;4182635;28;19925;-60
2023/07/09 10:21:03;;;;;;;;;;;;;;;25.40;47.81;101591.84;4182608;28;19982;-60
2023/07/09 10:23:08;;;;;;;;;;;;;;;25.36;47.84;101567.84;4182069;28;19931;-60
2023/07/09 10:25:17;;;;;;;;;;;;;;;25.37;48.34;101552.53;4182371;28;19978;-59
2023/07/09 10:27:37;;;;;;;;;;;;;;;25.35;48.40;101528.44;4181848;28;20395;-60
2023/07/09 10:29:44;;;;;;;;;;;;;;;25.34;48.40;101513.25;4182684;28;19920;-60
2023/07/09 10:32:18;;;;;;;;;;;;;;;25.33;49.02;101513.38;4182083;28;19921;-60